Time;durP1;ratioP1;P1;durP2;ratioP2;P2;SDS_P1;SDS_P2;PMS_P1;PMS_P2;Temp;Humidity;BMP_temperature;BMP_pressure;BME280_temperature;BME280_humidity;BME280_pressure;Samples;Min_cycle;Max_cycle;Signal;HPM_P1;HPM_P2
2022/03/28 04:16:10;;;;;;;;;;;5.00;80.90;;;;;;5008055;28;19928;-89
2022/03/28 04:18:36;;;;;;;;;;;4.80;80.90;;;;;;5007429;28;19936;-88
2022/03/28 04:21:02;;;;;;;;;;;4.90;81.30;;;;;;5007390;28;20357;-88
2022/03/28 04:23:28;;;;;;;;;;;5.00;81.20;;;;;;5007171;28;19916;-89
2022/03/28 04:25:53;;;;;;;;;;;5.00;81.10;;;;;;5007305;28;19914;-89
2022/03/28 04:28:19;;;;;;;;;;;4.90;80.90;;;;;;5007270;28;19944;-89
2022/03/28 04:30:44;;;;;;;;;;;4.80;80.60;;;;;;5007124;28;20283;-89
2022/03/28 04:33:11;;;;;;;;;;;4.50;81.10;;;;;;5006972;28;19917;-89
2022/03/28 04:35:37;;;;;;;;;;;4.30;83.60;;;;;;5007103;28;19963;-89
2022/03/28 04:38:06;;;;;;;;;;;4.10;85.40;;;;;;5007166;28;20000;-89
2022/03/28 04:40:33;;;;;;;;;;;4.00;86.80;;;;;;5007050;28;19914;-89
2022/03/28 04:42:59;;;;;;;;;;;4.10;87.00;;;;;;5007077;28;19978;-89
2022/03/28 04:45:25;;;;;;;;;;;4.20;87.40;;;;;;5006700;28;20367;-89
2022/03/28 04:47:50;;;;;;;;;;;4.10;87.30;;;;;;5006977;28;19921;-89
2022/03/28 04:50:16;;;;;;;;;;;4.10;87.40;;;;;;5006915;28;19916;-89
2022/03/28 04:52:42;;;;;;;;;;;4.20;87.70;;;;;;5005669;28;20295;-89
2022/03/28 04:55:08;;;;;;;;;;;4.40;87.90;;;;;;5006546;28;19914;-89
2022/03/28 04:57:33;;;;;;;;;;;4.40;87.50;;;;;;5006795;28;19913;-89
2022/03/28 04:59:59;;;;;;;;;;;4.50;87.10;;;;;;5006805;28;19925;-89
2022/03/28 05:02:24;;;;;;;;;;;4.60;86.50;;;;;;5007002;28;19910;-90
2022/03/28 05:04:50;;;;;;;;;;;4.60;83.80;;;;;;5000784;28;19929;-90
2022/03/28 05:07:22;;;;;;;;;;;4.60;83.80;;;;;;4996241;28;20036;-89
2022/03/28 05:09:48;;;;;;;;;;;4.70;84.20;;;;;;4990755;28;19914;-88
2022/03/28 05:12:13;;;;;;;;;;;4.60;85.10;;;;;;5006552;28;19920;-89
2022/03/28 05:14:39;;;;;;;;;;;4.60;86.30;;;;;;4994819;28;19973;-89
2022/03/28 05:17:05;;;;;;;;;;;4.50;86.20;;;;;;4987109;28;19910;-89
2022/03/28 05:19:31;;;;;;;;;;;4.60;85.90;;;;;;5001574;28;19909;-89
2022/03/28 07:13:30;;;;;;;;;;;6.60;81.50;;;;;;5109461;27;19938;-91
2022/03/28 07:15:56;;;;;;;;;;;8.20;78.70;;;;;;5106942;28;19982;-90
2022/03/28 07:18:22;;;;;;;;;;;8.40;79.30;;;;;;5109000;28;20393;-90
2022/03/28 07:20:48;;;;;;;;;;;8.50;79.60;;;;;;5110002;28;19916;-89
2022/03/28 07:23:14;;;;;;;;;;;8.70;79.80;;;;;;5107544;28;19912;-90
2022/03/28 07:25:40;;;;;;;;;;;8.80;80.20;;;;;;5110109;28;19916;-90
2022/03/28 07:28:09;;;;;;;;;;;8.90;79.40;;;;;;5100682;28;19916;-89
2022/03/28 07:30:35;;;;;;;;;;;9.10;79.00;;;;;;5099701;28;20277;-90
2022/03/28 07:33:02;;;;;;;;;;;9.30;78.70;;;;;;5109244;28;20014;-90
2022/03/28 07:35:29;;;;;;;;;;;9.50;78.30;;;;;;5101037;28;20297;-88
2022/03/28 07:37:54;;;;;;;;;;;9.60;78.00;;;;;;5103608;28;19912;-90
2022/03/28 07:40:20;;;;;;;;;;;9.70;77.30;;;;;;5107653;28;19912;-89
2022/03/28 07:42:46;;;;;;;;;;;9.90;76.50;;;;;;5107266;28;19912;-90
2022/03/28 07:45:54;;;;;;;;;;;10.00;75.20;;;;;;5121011;27;19915;-89
2022/03/28 07:48:21;;;;;;;;;;;10.20;75.90;;;;;;5126945;27;19912;-89
2022/03/28 07:50:46;;;;;;;;;;;10.20;76.10;;;;;;5127096;27;19973;-89
2022/03/28 07:53:12;;;;;;;;;;;10.30;76.00;;;;;;5124376;27;19920;-89
2022/03/28 07:55:39;;;;;;;;;;;10.40;73.70;;;;;;5124916;27;20389;-89
2022/03/28 07:58:05;;;;;;;;;;;10.50;72.70;;;;;;5128383;27;19971;-89
2022/03/28 08:00:31;;;;;;;;;;;10.60;72.10;;;;;;5125082;27;20262;-89
2022/03/28 08:06:00;;;;;;;;;;;10.80;70.70;;;;;;5128519;27;20378;-87
2022/03/28 08:08:26;;;;;;;;;;;11.40;67.80;;;;;;5106996;27;19918;-88
2022/03/28 08:10:52;;;;;;;;;;;11.50;65.10;;;;;;5128723;27;20254;-88
2022/03/28 08:13:17;;;;;;;;;;;11.70;65.40;;;;;;5129437;27;19920;-88
2022/03/28 08:15:43;;;;;;;;;;;11.80;65.10;;;;;;5123868;27;20335;-89
2022/03/28 08:18:08;;;;;;;;;;;11.90;60.30;;;;;;5150419;27;19907;-89
2022/03/28 08:20:34;;;;;;;;;;;12.00;61.80;;;;;;5132212;27;19957;-89
2022/03/28 08:23:00;;;;;;;;;;;12.10;62.30;;;;;;5129955;27;19916;-88
2022/03/28 08:25:26;;;;;;;;;;;12.30;62.20;;;;;;5130468;27;19919;-89
2022/03/28 08:27:51;;;;;;;;;;;12.40;59.80;;;;;;5138304;27;19973;-88
2022/03/28 08:30:17;;;;;;;;;;;12.70;55.60;;;;;;5130392;27;19911;-89
2022/03/28 08:32:43;;;;;;;;;;;12.90;57.40;;;;;;5132153;27;19923;-89
2022/03/28 08:35:09;;;;;;;;;;;13.00;58.30;;;;;;5126220;27;20004;-88
2022/03/28 08:37:35;;;;;;;;;;;13.20;57.90;;;;;;5122315;27;19916;-87
2022/03/28 08:40:00;;;;;;;;;;;13.30;56.90;;;;;;5137456;27;19923;-86
2022/03/28 08:42:26;;;;;;;;;;;13.60;55.10;;;;;;5120339;27;19920;-88
2022/03/28 08:44:52;;;;;;;;;;;13.70;52.20;;;;;;5121200;27;19968;-88
2022/03/28 08:47:19;;;;;;;;;;;13.70;51.40;;;;;;5133082;27;19912;-89
2022/03/28 08:49:46;;;;;;;;;;;13.80;52.20;;;;;;5124755;27;19919;-87
2022/03/28 08:55:37;;;;;;;;;;;13.80;51.50;;;;;;5112872;27;19920;-88
2022/03/28 08:58:03;;;;;;;;;;;14.10;52.10;;;;;;5104816;28;19918;-87
2022/03/28 09:01:59;;;;;;;;;;;14.30;51.90;;;;;;5062401;28;19917;-87
2022/03/28 09:04:25;;;;;;;;;;;14.40;45.60;;;;;;5064729;28;19913;-87
2022/03/28 09:06:51;;;;;;;;;;;14.60;45.30;;;;;;5060337;28;19967;-87
2022/03/28 09:13:20;;;;;;;;;;;14.80;47.00;;;;;;5108163;27;19924;-88
2022/03/28 09:15:56;;;;;;;;;;;15.10;46.60;;;;;;5116787;28;19918;-87
2022/03/28 09:18:26;;;;;;;;;;;15.20;46.00;;;;;;5098379;28;19912;-87
2022/03/28 09:20:59;;;;;;;;;;;15.10;45.90;;;;;;5111296;28;19919;-87
2022/03/28 09:23:25;;;;;;;;;;;15.10;45.70;;;;;;5112599;28;20006;-88
2022/03/28 09:25:51;;;;;;;;;;;15.30;46.40;;;;;;5106596;28;20014;-89
2022/03/28 09:28:23;;;;;;;;;;;15.40;45.80;;;;;;5144985;27;19912;-89
2022/03/28 09:30:48;;;;;;;;;;;15.60;48.10;;;;;;5119673;28;20408;-90
2022/03/28 09:33:17;;;;;;;;;;;15.90;46.90;;;;;;5098856;28;19916;-89
2022/03/28 09:35:45;;;;;;;;;;;16.10;47.10;;;;;;5106701;28;19912;-90
2022/03/28 09:38:12;;;;;;;;;;;16.30;44.30;;;;;;5112864;28;19916;-89
2022/03/28 09:40:38;;;;;;;;;;;16.40;41.90;;;;;;5111691;28;20370;-92
2022/03/28 09:43:05;;;;;;;;;;;16.50;43.50;;;;;;5106118;28;19934;-90
2022/03/28 09:45:32;;;;;;;;;;;16.70;43.80;;;;;;5102474;28;19966;-90
2022/03/28 09:48:02;;;;;;;;;;;16.70;42.30;;;;;;5126030;28;19998;-90
2022/03/28 09:50:32;;;;;;;;;;;16.80;42.10;;;;;;5098439;28;19958;-90
2022/03/28 09:53:16;;;;;;;;;;;16.80;42.10;;;;;;5108129;28;19923;-89
2022/03/28 09:55:49;;;;;;;;;;;16.90;40.60;;;;;;5102207;28;20003;-89
2022/03/28 09:58:32;;;;;;;;;;;16.90;40.60;;;;;;5103527;28;19916;-89
2022/03/28 10:00:59;;;;;;;;;;;17.00;42.10;;;;;;5100121;28;19912;-90
2022/03/28 10:03:25;;;;;;;;;;;17.20;40.70;;;;;;5105398;28;19920;-90
2022/03/28 10:05:50;;;;;;;;;;;17.30;42.70;;;;;;5094637;28;20018;-89
2022/03/28 10:08:16;;;;;;;;;;;17.60;40.30;;;;;;5102351;28;20011;-89
2022/03/28 10:10:42;;;;;;;;;;;17.70;39.80;;;;;;5086468;28;19923;-88
2022/03/28 10:13:08;;;;;;;;;;;17.80;42.60;;;;;;5087439;28;19932;-88
2022/03/28 10:15:34;;;;;;;;;;;18.00;41.20;;;;;;5086149;28;20381;-89
2022/03/28 10:18:00;;;;;;;;;;;18.10;44.50;;;;;;5084805;28;19912;-88
2022/03/28 10:20:26;;;;;;;;;;;18.20;42.30;;;;;;5086400;28;19912;-90
2022/03/28 10:22:53;;;;;;;;;;;18.30;41.10;;;;;;5079324;28;19919;-90
2022/03/28 10:25:21;;;;;;;;;;;18.30;42.10;;;;;;5073538;28;19981;-90
2022/03/28 10:27:47;;;;;;;;;;;18.30;41.60;;;;;;5069589;28;19912;-90
2022/03/28 10:30:16;;;;;;;;;;;18.30;41.10;;;;;;5075483;28;19995;-91
2022/03/28 10:32:41;;;;;;;;;;;18.20;42.30;;;;;;5075655;28;20435;-90
2022/03/28 10:35:08;;;;;;;;;;;18.30;42.40;;;;;;5075716;28;19948;-90
2022/03/28 10:37:34;;;;;;;;;;;18.50;40.90;;;;;;5075966;28;19959;-91
2022/03/28 10:40:19;;;;;;;;;;;18.60;40.70;;;;;;5075850;28;19916;-90
2022/03/28 10:42:46;;;;;;;;;;;18.80;41.80;;;;;;5075506;28;19908;-90
2022/03/28 10:45:18;;;;;;;;;;;18.80;40.80;;;;;;5075545;28;20007;-91
2022/03/28 10:47:46;;;;;;;;;;;18.80;41.70;;;;;;5075587;28;19994;-91
2022/03/28 10:50:13;;;;;;;;;;;19.00;41.70;;;;;;5074224;28;19915;-91
2022/03/28 10:52:58;;;;;;;;;;;19.20;42.80;;;;;;5075168;28;19916;-91
2022/03/28 10:55:32;;;;;;;;;;;19.40;40.70;;;;;;5075268;28;19922;-90
2022/03/28 10:58:04;;;;;;;;;;;19.50;40.10;;;;;;5075432;28;19908;-91
2022/03/28 11:00:30;;;;;;;;;;;19.40;38.50;;;;;;5075274;28;19991;-91
2022/03/28 11:03:00;;;;;;;;;;;19.30;38.50;;;;;;5107841;28;20046;-90
2022/03/28 11:05:26;;;;;;;;;;;19.30;42.10;;;;;;5075271;28;19962;-91
2022/03/28 11:08:01;;;;;;;;;;;19.30;39.20;;;;;;5075485;28;19909;-91
2022/03/28 11:10:26;;;;;;;;;;;19.50;41.90;;;;;;5075086;28;19908;-91
2022/03/28 11:13:12;;;;;;;;;;;19.80;40.50;;;;;;5074828;28;20291;-90
2022/03/28 11:15:37;;;;;;;;;;;19.90;37.50;;;;;;5074614;28;19919;-91
2022/03/28 11:18:04;;;;;;;;;;;20.20;39.40;;;;;;5075071;28;19909;-92
2022/03/28 11:20:45;;;;;;;;;;;20.30;38.00;;;;;;5075046;28;20054;-90
2022/03/28 11:23:11;;;;;;;;;;;20.40;37.20;;;;;;5074741;28;19919;-91
2022/03/28 11:25:36;;;;;;;;;;;20.40;36.50;;;;;;5080016;28;19958;-91
2022/03/28 11:28:02;;;;;;;;;;;20.40;34.80;;;;;;5075748;28;19959;-90
2022/03/28 11:30:28;;;;;;;;;;;20.40;35.90;;;;;;5089662;28;20822;-90
2022/03/28 11:32:54;;;;;;;;;;;20.40;36.10;;;;;;5089899;28;19916;-90
2022/03/28 11:35:20;;;;;;;;;;;20.60;36.50;;;;;;5075585;28;20384;-90
2022/03/28 11:37:47;;;;;;;;;;;20.60;37.30;;;;;;5080798;28;19958;-90
2022/03/28 11:40:12;;;;;;;;;;;20.80;38.70;;;;;;5084360;28;20137;-90
2022/03/28 11:42:44;;;;;;;;;;;20.80;41.00;;;;;;5075285;28;19912;-91
2022/03/28 11:45:10;;;;;;;;;;;20.90;39.10;;;;;;5087233;28;20021;-91
2022/03/28 11:47:37;;;;;;;;;;;21.30;38.30;;;;;;5087771;28;19952;-91
2022/03/28 11:50:04;;;;;;;;;;;21.40;39.80;;;;;;5077636;28;19982;-90
2022/03/28 11:52:30;;;;;;;;;;;21.60;37.70;;;;;;5079769;28;19947;-90
2022/03/28 11:54:56;;;;;;;;;;;21.70;40.60;;;;;;5073934;28;20374;-91
2022/03/28 12:00:11;;;;;;;;;;;21.70;36.10;;;;;;5077196;28;20011;-91
2022/03/28 12:02:45;;;;;;;;;;;21.80;37.90;;;;;;5078627;28;20009;-91
2022/03/28 12:05:11;;;;;;;;;;;22.00;37.10;;;;;;5075774;28;20297;-91
2022/03/28 12:21:26;;;;;;;;;;;22.20;36.90;;;;;;5101012;27;20417;-90
2022/03/28 12:24:57;;;;;;;;;;;22.70;37.70;;;;;;5144576;27;20300;-89
2022/03/28 12:27:24;;;;;;;;;;;22.80;35.50;;;;;;5124193;28;20403;-89
2022/03/28 12:29:52;;;;;;;;;;;23.30;34.40;;;;;;5130396;28;19951;-89
2022/03/28 12:32:19;;;;;;;;;;;23.30;33.30;;;;;;5130939;28;20384;-89
2022/03/28 12:34:45;;;;;;;;;;;23.10;33.90;;;;;;5132564;28;19955;-89
2022/03/28 12:37:15;;;;;;;;;;;23.60;35.10;;;;;;5131678;28;19912;-89
2022/03/28 12:39:44;;;;;;;;;;;24.00;34.80;;;;;;5129704;28;19918;-89
2022/03/28 12:42:23;;;;;;;;;;;24.80;33.50;;;;;;5128794;28;19942;-89
2022/03/28 12:44:52;;;;;;;;;;;25.50;31.90;;;;;;5127464;28;19939;-89
2022/03/28 12:47:17;;;;;;;;;;;26.30;30.30;;;;;;5127849;28;20278;-89
2022/03/28 12:49:43;;;;;;;;;;;26.30;28.90;;;;;;5125456;28;20057;-89
2022/03/28 12:52:10;;;;;;;;;;;25.90;30.10;;;;;;5120844;28;20377;-89
2022/03/28 12:54:36;;;;;;;;;;;26.30;29.70;;;;;;5123872;28;20042;-89
2022/03/28 13:00:35;;;;;;;;;;;26.70;30.10;;;;;;5106185;27;19928;-92
2022/03/28 13:03:01;;;;;;;;;;;27.20;29.70;;;;;;5102739;28;19916;-92
2022/03/28 13:12:54;;;;;;;;;;;27.10;28.00;;;;;;5099068;27;19920;-88
2022/03/28 13:15:21;;;;;;;;;;;26.50;29.80;;;;;;5090517;28;19920;-88
2022/03/28 13:18:37;;;;;;;;;;;26.20;30.10;;;;;;5051335;28;19927;-89
2022/03/28 13:21:03;;;;;;;;;;;25.80;30.40;;;;;;5053612;28;19913;-89
2022/03/28 13:23:32;;;;;;;;;;;26.50;30.00;;;;;;5059759;28;19967;-89
2022/03/28 13:26:11;;;;;;;;;;;27.00;28.10;;;;;;5047604;28;19921;-89
2022/03/28 13:28:37;;;;;;;;;;;26.80;27.70;;;;;;5042403;28;20008;-90
2022/03/28 13:31:05;;;;;;;;;;;27.00;27.80;;;;;;5043606;28;20012;-88
2022/03/28 13:33:30;;;;;;;;;;;26.70;25.80;;;;;;5056069;28;19913;-88
2022/03/28 13:35:56;;;;;;;;;;;25.90;26.20;;;;;;5048986;28;20383;-89
2022/03/28 13:38:24;;;;;;;;;;;26.20;27.00;;;;;;5044059;28;19925;-89
2022/03/28 13:40:51;;;;;;;;;;;26.50;27.70;;;;;;5052686;28;19920;-89
2022/03/28 13:43:17;;;;;;;;;;;26.80;28.00;;;;;;5053599;28;20043;-89
2022/03/28 13:45:43;;;;;;;;;;;27.00;25.80;;;;;;5070188;28;19913;-90
2022/03/28 13:48:13;;;;;;;;;;;27.00;27.50;;;;;;5063187;28;19925;-88
2022/03/28 13:50:39;;;;;;;;;;;27.30;26.60;;;;;;5049280;28;19920;-90
2022/03/28 13:53:06;;;;;;;;;;;28.00;26.10;;;;;;5041854;28;19920;-90
2022/03/28 13:55:32;;;;;;;;;;;27.70;25.50;;;;;;5047952;28;20382;-90
2022/03/28 13:57:58;;;;;;;;;;;27.40;25.70;;;;;;5045976;28;19930;-89
2022/03/28 14:00:24;;;;;;;;;;;27.40;26.10;;;;;;5047293;28;20019;-90
2022/03/28 14:02:50;;;;;;;;;;;27.40;26.60;;;;;;5044674;28;20376;-90
2022/03/28 14:05:15;;;;;;;;;;;28.00;26.30;;;;;;5045256;28;19913;-90
2022/03/28 14:07:41;;;;;;;;;;;28.50;24.40;;;;;;5047674;28;19921;-90
2022/03/28 14:10:07;;;;;;;;;;;28.20;25.00;;;;;;5046211;28;19917;-90
2022/03/28 14:12:32;;;;;;;;;;;28.40;24.60;;;;;;5046810;28;19922;-90
2022/03/28 14:15:01;;;;;;;;;;;28.70;24.80;;;;;;5036222;28;19913;-90
2022/03/28 14:17:28;;;;;;;;;;;29.00;24.00;;;;;;5052126;28;19928;-89
2022/03/28 14:19:54;;;;;;;;;;;28.70;23.70;;;;;;5062782;28;19919;-90
2022/03/28 14:22:19;;;;;;;;;;;28.20;25.10;;;;;;5063656;28;19916;-90
2022/03/28 14:24:45;;;;;;;;;;;28.60;24.80;;;;;;5045983;28;20009;-89
2022/03/28 14:27:10;;;;;;;;;;;28.80;24.60;;;;;;5072860;28;19912;-90
2022/03/28 14:29:36;;;;;;;;;;;29.20;23.70;;;;;;5055607;28;19952;-90
2022/03/28 14:32:04;;;;;;;;;;;29.40;23.10;;;;;;5051669;28;20294;-90
2022/03/28 14:34:30;;;;;;;;;;;29.20;23.50;;;;;;5045065;28;19913;-90
2022/03/28 14:36:55;;;;;;;;;;;29.40;23.00;;;;;;5050762;28;19924;-89
2022/03/28 14:39:21;;;;;;;;;;;28.70;22.40;;;;;;5050626;28;20007;-90
2022/03/28 14:41:46;;;;;;;;;;;28.30;23.30;;;;;;5063852;28;20383;-90
2022/03/28 14:44:12;;;;;;;;;;;28.70;24.00;;;;;;5066338;28;20034;-90
2022/03/28 14:49:21;;;;;;;;;;;29.30;23.50;;;;;;5068927;28;19967;-90
2022/03/28 14:51:47;;;;;;;;;;;29.80;22.40;;;;;;5047826;28;20197;-90
2022/03/28 14:54:13;;;;;;;;;;;29.80;25.90;;;;;;5047073;28;19920;-90
2022/03/28 14:56:38;;;;;;;;;;;29.80;28.20;;;;;;5044689;28;20369;-90
2022/03/28 15:04:15;;;;;;;;;;;30.00;30.20;;;;;;5109334;27;20305;-92
2022/03/28 15:06:41;;;;;;;;;;;29.50;29.60;;;;;;5105096;28;19912;-91
2022/03/28 15:14:40;;;;;;;;;;;28.80;32.30;;;;;;5087218;28;20250;-90
2022/03/28 15:17:05;;;;;;;;;;;27.40;35.00;;;;;;5089526;28;20005;-90
2022/03/28 15:19:32;;;;;;;;;;;27.30;35.10;;;;;;5068261;28;19912;-90
2022/03/28 15:22:03;;;;;;;;;;;26.90;36.80;;;;;;5070710;28;19951;-89
2022/03/28 15:24:36;;;;;;;;;;;26.00;38.40;;;;;;5072156;28;19947;-89
2022/03/28 15:27:02;;;;;;;;;;;25.80;38.60;;;;;;5069893;28;19923;-89
2022/03/28 15:29:27;;;;;;;;;;;26.00;38.20;;;;;;5071991;28;19995;-90
2022/03/28 15:31:53;;;;;;;;;;;26.90;36.70;;;;;;5054737;28;19919;-90
2022/03/28 15:34:24;;;;;;;;;;;27.80;34.80;;;;;;5066852;28;19916;-90
2022/03/28 15:36:50;;;;;;;;;;;28.30;34.20;;;;;;5061535;28;20359;-90
2022/03/28 15:39:17;;;;;;;;;;;28.80;33.20;;;;;;5068645;28;19919;-90
2022/03/28 15:41:43;;;;;;;;;;;28.70;32.70;;;;;;5050473;28;19909;-90
2022/03/28 15:44:10;;;;;;;;;;;27.60;34.70;;;;;;5051926;28;20008;-90
2022/03/28 15:46:37;;;;;;;;;;;27.90;34.60;;;;;;5070252;28;19913;-90
2022/03/28 15:49:03;;;;;;;;;;;28.30;34.10;;;;;;5057634;28;19974;-90
2022/03/28 15:51:28;;;;;;;;;;;28.30;34.30;;;;;;5061122;28;20007;-90
2022/03/28 15:53:54;;;;;;;;;;;28.00;34.40;;;;;;5063878;28;19920;-90
2022/03/28 15:56:20;;;;;;;;;;;26.60;37.00;;;;;;5050250;28;19916;-90
2022/03/28 15:58:46;;;;;;;;;;;26.70;37.00;;;;;;5066536;28;20335;-89
2022/03/28 16:03:58;;;;;;;;;;;25.40;39.40;;;;;;5053411;28;19919;-89
2022/03/28 16:06:24;;;;;;;;;;;24.30;42.00;;;;;;5059927;28;19916;-89
2022/03/28 16:08:50;;;;;;;;;;;24.10;42.70;;;;;;5053255;28;20259;-90
2022/03/28 16:11:16;;;;;;;;;;;24.30;42.40;;;;;;5044555;28;19999;-90
2022/03/28 16:13:41;;;;;;;;;;;24.80;41.40;;;;;;5056370;28;20003;-90
2022/03/28 16:16:07;;;;;;;;;;;25.10;40.80;;;;;;5062251;28;19913;-90
2022/03/28 16:18:33;;;;;;;;;;;25.10;41.00;;;;;;5066446;28;19958;-90
2022/03/28 16:20:59;;;;;;;;;;;24.80;41.00;;;;;;5065694;28;20378;-90
2022/03/28 16:23:25;;;;;;;;;;;24.80;40.90;;;;;;5065778;28;19982;-90
2022/03/28 16:25:51;;;;;;;;;;;24.70;41.30;;;;;;5053675;28;19913;-90
2022/03/28 16:28:17;;;;;;;;;;;24.50;41.70;;;;;;5052623;28;19952;-89
2022/03/28 16:30:43;;;;;;;;;;;24.50;41.60;;;;;;5053189;28;19944;-90
2022/03/28 16:33:10;;;;;;;;;;;24.30;41.80;;;;;;5054945;28;19943;-90
2022/03/28 16:35:36;;;;;;;;;;;24.30;41.80;;;;;;5050479;28;19919;-89
2022/03/28 16:38:02;;;;;;;;;;;24.10;42.00;;;;;;5054572;28;20382;-90
2022/03/28 16:40:27;;;;;;;;;;;23.80;42.60;;;;;;5052958;28;19966;-90
2022/03/28 16:42:53;;;;;;;;;;;23.60;42.70;;;;;;5052883;28;20011;-90
2022/03/28 16:45:18;;;;;;;;;;;23.30;43.10;;;;;;5051866;28;20367;-90
2022/03/28 16:47:47;;;;;;;;;;;22.80;44.00;;;;;;5053675;28;19913;-90
2022/03/28 16:50:13;;;;;;;;;;;22.40;44.70;;;;;;5048975;28;20446;-90
2022/03/28 16:52:38;;;;;;;;;;;22.00;45.40;;;;;;5052119;28;20027;-89
2022/03/28 16:55:05;;;;;;;;;;;21.50;46.50;;;;;;5051002;28;19925;-89
2022/03/28 16:57:31;;;;;;;;;;;21.10;47.30;;;;;;5051777;28;19918;-90
2022/03/28 16:59:56;;;;;;;;;;;20.60;48.40;;;;;;5052676;28;19920;-89
2022/03/28 17:02:22;;;;;;;;;;;20.20;49.40;;;;;;5052055;28;19920;-89
2022/03/28 17:04:48;;;;;;;;;;;19.90;50.00;;;;;;5048137;28;19924;-89
2022/03/28 17:07:13;;;;;;;;;;;19.70;50.70;;;;;;5054631;28;20350;-90
2022/03/28 17:09:39;;;;;;;;;;;19.60;50.10;;;;;;5060416;28;19920;-89
2022/03/28 17:12:05;;;;;;;;;;;19.40;50.20;;;;;;5052238;28;19931;-89
2022/03/28 17:14:31;;;;;;;;;;;19.10;51.40;;;;;;5053703;28;19939;-89
2022/03/28 17:16:57;;;;;;;;;;;18.80;52.40;;;;;;5052660;28;19912;-89
2022/03/28 17:19:22;;;;;;;;;;;18.50;52.90;;;;;;5052336;28;19917;-89
2022/03/28 17:21:52;;;;;;;;;;;18.20;54.00;;;;;;5052929;28;19919;-89
2022/03/28 17:24:17;;;;;;;;;;;18.00;54.60;;;;;;5054515;28;19912;-89
2022/03/28 17:26:43;;;;;;;;;;;17.80;55.10;;;;;;5051913;28;20317;-89
2022/03/28 17:32:30;;;;;;;;;;;17.40;55.80;;;;;;5090811;27;19938;-89
2022/03/28 17:36:36;;;;;;;;;;;16.40;58.70;;;;;;5110752;27;20289;-89
2022/03/28 17:39:03;;;;;;;;;;;15.80;60.20;;;;;;5105348;28;19987;-90
2022/03/28 17:41:29;;;;;;;;;;;15.50;60.80;;;;;;5090646;28;20332;-90
2022/03/28 17:43:54;;;;;;;;;;;15.30;60.70;;;;;;5090596;28;19909;-89
2022/03/28 17:52:45;;;;;;;;;;;15.20;60.80;;;;;;5110130;27;19916;-89
2022/03/28 17:55:10;;;;;;;;;;;15.00;60.30;;;;;;5111360;28;19919;-89
2022/03/28 17:57:37;;;;;;;;;;;14.60;60.70;;;;;;5110626;28;19912;-88
2022/03/28 18:00:03;;;;;;;;;;;14.40;60.80;;;;;;5110250;28;19912;-89
2022/03/28 18:02:29;;;;;;;;;;;14.30;59.00;;;;;;5110615;28;19908;-89
2022/03/28 18:04:55;;;;;;;;;;;14.30;57.80;;;;;;5110081;28;19919;-89
2022/03/28 18:07:22;;;;;;;;;;;14.40;57.10;;;;;;5109782;28;19916;-89
2022/03/28 18:12:20;;;;;;;;;;;14.40;56.10;;;;;;5130700;27;20274;-90
